Airfield :
LOGIN :

Register | Disclaimer

   EN    FR    IT 

 










Legend :    VFR   Marginal VFR   IFR   Intensive IFR   Very Intensive IFR
Visi :
Ceiling :
>= 8 km
>= 3000ft
5 to 8 km
1000 to 3000 ft
1500m to 5 km
500 to 1000 ft
800 to 1500m
200 to 500 ft
< 800m
< 200 ft
Symbols :   Thunderstorms  Fog  Heavy snow  Heavy precipitations  Wind > 20 kt
SIGMETs :     Misc.  Thunderstorms  Icing  Turbulence  Mountain Waves  Volcanic Ashes







- Airport Elevation : 1470 ft
- IATA code : KLU


LOWK - Klagenfurt

CURRENT METAR :
  • 181520Z 02009KT 340V060 9999 FEW060 BKN100 26/08 Q1018 NOSIG

EXPIRED METARs :
  • 181450Z 34008KT 310V020 9999 FEW060 SCT080 BKN100 26/08 Q1018 NOSIG
  • 181420Z 01007KT 9999 FEW060 SCT080 BKN100 26/08 Q1018 NOSIG
  • 181350Z 35009KT 9999 FEW060 SCT080 26/07 Q1018 NOSIG
  • 181320Z 04012KT 010V110 9999 FEW060 SCT075 26/06 Q1018 NOSIG
  • 181250Z 03009KT 340V080 9999 FEW060 SCT075 27/08 Q1018 NOSIG

TAF TAF LOWK
Valid from the 18 at 12:00 until the 19 at 12:00 UTC


181115Z 1812/1912 02008KT 9999 FEW060 SCT100 TX26/1813Z TN12/1904Z
PROB30
TEMPO 1812/1818 -SHRA SCT060 FEW060TCU BKN100
BECMG 1820/1823 VRB02KT CAVOK
No reported NOTAMs for that airfield.



MET'MAP, your aeronautical weather chart ! - Copyright ORBIFLY December 2007 - Disclaimer

ORBIFLY MET'MAP TEAM :

Programming & Development : Alexandra Zaïnal
Concept & Development : Baudouin d'Aumeries
Co-Development & Prog : Marc-Olivier Méhu
Technical & hardware support : Manuel Goepfert

Contact : metmap@orbifly.com




SOURCES & CREDITS :

   NOAA